Time;durP1;ratioP1;P1;durP2;ratioP2;P2;SDS_P1;SDS_P2;PMS_P1;PMS_P2;Temp;Humidity;BMP_temperature;BMP_pressure;BME280_temperature;BME280_humidity;BME280_pressure;Samples;Min_cycle;Max_cycle;Signal;HPM_P1;HPM_P2
2023/05/02 00:02:06;;;;;;;4.68;3.65;;;;;;;;;;4952870;28;20869;-90
2023/05/02 00:04:32;;;;;;;4.03;2.83;;;;;;;;;;4933858;28;20199;-86
2023/05/02 00:06:58;;;;;;;5.27;3.10;;;;;;;;;;4949379;28;20184;-84
2023/05/02 00:09:24;;;;;;;4.75;3.20;;;;;;;;;;4935335;28;20550;-87
2023/05/02 00:11:50;;;;;;;5.53;3.67;;;;;;;;;;4940919;28;20208;-86
2023/05/02 00:14:16;;;;;;;3.57;2.40;;;;;;;;;;4951374;28;20251;-91
2023/05/02 00:16:42;;;;;;;3.60;3.30;;;;;;;;;;4954293;28;20944;-89
2023/05/02 00:19:08;;;;;;;5.60;3.60;;;;;;;;;;4937980;28;20443;-87
2023/05/02 00:21:34;;;;;;;5.47;2.97;;;;;;;;;;4927873;28;20462;-88
2023/05/02 00:24:00;;;;;;;5.43;3.10;;;;;;;;;;4938437;28;20443;-88
2023/05/02 00:26:27;;;;;;;4.27;2.80;;;;;;;;;;4931215;28;20189;-87
2023/05/02 00:28:53;;;;;;;4.47;3.92;;;;;;;;;;4958983;28;20460;-88
2023/05/02 00:31:19;;;;;;;3.60;3.30;;;;;;;;;;4956084;28;20760;-89
2023/05/02 00:33:45;;;;;;;3.30;2.47;;;;;;;;;;4949449;29;20443;-87
2023/05/02 00:36:18;;;;;;;3.90;3.33;;;11.70;99.90;;;;;;4935584;28;20432;-87
2023/05/02 00:38:44;;;;;;;5.45;3.13;;;11.80;99.90;;;;;;4941804;28;20482;-89
2023/05/02 00:41:10;;;;;;;4.72;2.65;;;;;;;;;;4941274;28;20263;-89
2023/05/02 00:43:38;;;;;;;5.43;2.92;;;;;;;;;;4937338;28;20491;-86
2023/05/02 00:46:04;;;;;;;2.72;1.92;;;11.70;99.90;;;;;;4947487;28;20184;-87
2023/05/02 00:48:31;;;;;;;4.83;3.10;;;;;;;;;;4939389;28;20202;-85
2023/05/02 00:50:57;;;;;;;3.03;2.25;;;11.70;99.90;;;;;;4957295;28;20456;-89
2023/05/02 00:53:23;;;;;;;3.03;2.38;;;;;;;;;;4929967;28;20232;-88
2023/05/02 00:55:50;;;;;;;6.20;2.83;;;;;;;;;;4930498;28;20188;-90
2023/05/02 00:58:17;;;;;;;4.75;2.92;;;11.70;99.90;;;;;;4946134;28;20447;-87
2023/05/02 01:00:51;;;;;;;4.38;2.92;;;11.70;99.90;;;;;;4933352;28;20272;-82
2023/05/02 01:04:04;;;;;;;4.40;2.88;;;11.70;99.90;;;;;;4928949;28;20196;-86
2023/05/02 01:07:04;;;;;;;4.15;3.25;;;11.70;99.90;;;;;;4904234;28;20239;-85
2023/05/02 01:09:45;;;;;;;3.22;2.38;;;11.70;99.90;;;;;;4938233;28;20254;-87
2023/05/02 01:12:41;;;;;;;4.05;3.10;;;11.60;99.90;;;;;;4953118;28;20204;-87
2023/05/02 01:15:11;;;;;;;4.15;2.85;;;11.60;99.90;;;;;;4957611;28;20172;-88
2023/05/02 01:17:37;;;;;;;4.97;3.33;;;;;;;;;;4951860;28;20195;-82
2023/05/02 01:20:07;;;;;;;4.53;3.35;;;11.60;99.90;;;;;;4941088;28;20197;-86
2023/05/02 01:22:34;;;;;;;4.32;2.92;;;11.60;99.90;;;;;;4943308;28;20294;-84
2023/05/02 01:25:21;;;;;;;6.03;3.72;;;11.60;99.90;;;;;;4941275;28;20177;-87
2023/05/02 01:27:47;;;;;;;6.32;3.55;;;;;;;;;;4941598;28;20255;-84
2023/05/02 01:30:15;;;;;;;4.00;2.50;;;11.40;99.90;;;;;;4943867;28;20196;-85
2023/05/02 01:32:44;;;;;;;4.03;2.70;;;11.30;99.90;;;;;;4950081;28;20460;-84
2023/05/02 01:35:10;;;;;;;7.78;3.10;;;11.80;99.90;;;;;;4942363;28;20200;-83
2023/05/02 01:37:38;;;;;;;8.47;4.00;;;11.20;99.90;;;;;;4939591;28;20173;-85
2023/05/02 01:40:06;;;;;;;5.28;3.40;;;11.20;99.90;;;;;;4966479;28;20436;-84
2023/05/02 01:42:35;;;;;;;4.22;2.65;;;11.10;99.90;;;;;;4950667;29;20262;-86
2023/05/02 01:45:03;;;;;;;3.80;2.63;;;11.00;99.90;;;;;;4947704;28;20191;-84
2023/05/02 01:47:32;;;;;;;4.63;3.20;;;10.90;99.90;;;;;;4950608;28;20200;-84
2023/05/02 01:49:58;;;;;;;3.72;3.00;;;10.80;99.90;;;;;;4957315;28;20272;-85
2023/05/02 01:52:25;;;;;;;7.00;3.50;;;;;;;;;;4951272;28;20213;-84
2023/05/02 01:54:52;;;;;;;4.88;3.95;;;10.80;99.90;;;;;;4949015;28;20209;-85
2023/05/02 01:57:18;;;;;;;6.78;3.67;;;;;;;;;;4946452;28;20339;-83
2023/05/02 01:59:46;;;;;;;6.15;3.90;;;10.70;99.90;;;;;;4948837;28;20190;-83
2023/05/02 02:02:14;;;;;;;4.70;3.05;;;10.70;99.90;;;;;;4948280;28;20208;-84
2023/05/02 02:04:41;;;;;;;3.53;2.75;;;10.70;99.90;;;;;;4962577;28;20184;-84
2023/05/02 02:07:10;;;;;;;8.80;3.38;;;10.70;99.90;;;;;;4949706;28;20179;-86
2023/05/02 02:09:36;;;;;;;4.85;3.63;;;;;;;;;;4945814;28;20246;-84
2023/05/02 02:12:15;;;;;;;5.40;3.63;;;10.60;99.90;;;;;;4942737;28;21919;-87
2023/05/02 02:14:55;;;;;;;8.00;3.55;;;10.50;99.90;;;;;;4945460;28;20428;-85
2023/05/02 02:17:25;;;;;;;4.30;3.13;;;10.50;99.90;;;;;;4950851;28;20168;-83
2023/05/02 02:19:53;;;;;;;3.10;2.80;;;10.50;99.90;;;;;;4966394;28;20204;-89
2023/05/02 02:22:20;;;;;;;7.50;4.20;;;10.50;99.90;;;;;;4950507;28;20240;-87
2023/05/02 02:24:47;;;;;;;5.63;3.75;;;10.40;99.90;;;;;;4941460;28;20188;-86
2023/05/02 02:27:13;;;;;;;7.10;4.30;;;;;;;;;;4952008;28;20193;-87
2023/05/02 02:29:39;;;;;;;5.43;3.60;;;;;;;;;;4958491;28;20220;-88
2023/05/02 02:32:05;;;;;;;8.27;3.97;;;;;;;;;;4939190;28;20198;-88
2023/05/02 02:34:31;;;;;;;4.73;3.93;;;;;;;;;;4943906;28;20462;-89
2023/05/02 02:37:07;;;;;;;6.60;4.30;;;10.40;99.90;;;;;;4948452;28;20440;-88
2023/05/02 02:40:03;;;;;;;4.97;3.15;;;10.30;99.90;;;;;;4936998;28;20578;-87
2023/05/02 02:42:28;;;;;;;5.68;4.28;;;;;;;;;;4954374;28;20200;-83
2023/05/02 02:45:19;;;;;;;3.87;3.40;;;10.30;99.90;;;;;;4959607;28;20201;-82
2023/05/02 02:48:12;;;;;;;6.35;3.03;;;10.30;99.90;;;;;;4935366;28;20464;-83
2023/05/02 02:50:39;;;;;;;8.05;5.28;;;10.30;99.90;;;;;;4958792;28;20172;-89
2023/05/02 02:53:09;;;;;;;5.30;3.28;;;10.20;99.90;;;;;;4946516;28;20593;-83
2023/05/02 02:55:57;;;;;;;4.75;3.63;;;10.10;99.90;;;;;;4952427;28;20180;-87
2023/05/02 02:58:35;;;;;;;6.72;3.88;;;10.30;99.90;;;;;;4945902;28;20681;-87
2023/05/02 03:01:03;;;;;;;6.15;4.20;;;10.10;99.90;;;;;;4930527;28;20181;-83
2023/05/02 03:03:31;;;;;;;5.03;2.90;;;10.10;99.90;;;;;;4944532;28;20189;-89
2023/05/02 03:05:57;;;;;;;7.05;4.35;;;;;;;;;;4947419;28;20172;-84
2023/05/02 03:08:23;;;;;;;8.60;4.78;;;10.10;99.90;;;;;;4931361;28;20603;-85
2023/05/02 03:10:49;;;;;;;7.37;4.53;;;;;;;;;;4948927;28;20205;-83
2023/05/02 03:13:15;;;;;;;4.97;3.80;;;;;;;;;;4946798;28;20483;-87
2023/05/02 03:15:41;;;;;;;6.20;4.33;;;;;;;;;;4943394;28;20444;-86
2023/05/02 03:18:07;;;;;;;4.85;4.15;;;;;;;;;;4943623;28;20451;-84
2023/05/02 03:20:33;;;;;;;7.27;2.40;;;;;;;;;;4958905;28;20192;-86
2023/05/02 03:22:59;;;;;;;6.13;4.20;;;;;;;;;;4934811;28;20511;-85
2023/05/02 03:25:25;;;;;;;11.60;4.40;;;;;;;;;;4932513;28;20448;-88
2023/05/02 03:27:51;;;;;;;6.27;4.23;;;;;;;;;;4944756;28;20467;-86
2023/05/02 03:30:17;;;;;;;4.47;3.07;;;;;;;;;;4939279;28;20423;-83
2023/05/02 03:32:43;;;;;;;11.80;4.68;;;;;;;;;;4940557;28;20458;-83
2023/05/02 03:35:09;;;;;;;5.93;3.93;;;;;;;;;;4937469;28;20188;-90
2023/05/02 03:37:35;;;;;;;5.68;4.00;;;;;;;;;;4957734;28;20440;-85
2023/05/02 03:40:01;;;;;;;9.57;5.17;;;;;;;;;;4959806;28;20196;-85
2023/05/02 03:42:27;;;;;;;5.35;3.88;;;;;;;;;;4956050;28;20503;-88
2023/05/02 03:44:53;;;;;;;5.27;4.20;;;;;;;;;;4953797;28;20189;-81
2023/05/02 03:47:20;;;;;;;4.70;3.60;;;10.40;99.90;;;;;;4936406;28;20522;-89
2023/05/02 03:49:46;;;;;;;5.25;3.47;;;;;;;;;;4952254;28;20502;-87
2023/05/02 03:52:12;;;;;;;7.97;4.70;;;;;;;;;;4955371;28;20200;-85
2023/05/02 03:54:38;;;;;;;4.60;3.40;;;;;;;;;;4933634;28;20486;-86
2023/05/02 03:57:07;;;;;;;5.40;3.97;;;10.50;99.90;;;;;;4953070;28;20188;-86
2023/05/02 03:59:34;;;;;;;7.93;4.55;;;;;;;;;;4938490;29;20475;-87
2023/05/02 04:02:00;;;;;;;5.47;3.17;;;;;;;;;;4930706;28;20252;-88
2023/05/02 04:04:26;;;;;;;3.03;2.35;;;;;;;;;;4952406;28;20220;-89
2023/05/02 04:06:51;;;;;;;4.87;3.20;;;;;;;;;;4947490;28;20203;-86
2023/05/02 04:09:22;;;;;;;7.63;4.20;;;;;;;;;;4967601;28;20570;-83
2023/05/02 04:11:48;;;;;;;4.93;3.97;;;;;;;;;;4954399;28;20523;-89
2023/05/02 04:14:14;;;;;;;5.60;3.80;;;;;;;;;;4937400;28;20320;-86
2023/05/02 04:16:40;;;;;;;7.50;4.27;;;;;;;;;;4936069;28;20994;-89
2023/05/02 04:19:06;;;;;;;4.23;3.83;;;;;;;;;;4960176;28;20447;-88
2023/05/02 04:21:32;;;;;;;7.23;4.50;;;;;;;;;;4936230;29;20471;-87
2023/05/02 04:23:58;;;;;;;6.40;4.60;;;;;;;;;;4953843;28;20810;-85
2023/05/02 04:26:23;;;;;;;6.95;4.90;;;10.50;99.90;;;;;;4958263;28;20439;-84
2023/05/02 04:28:49;;;;;;;7.63;4.97;;;;;;;;;;4963262;28;20208;-89
2023/05/02 04:31:15;;;;;;;9.77;5.37;;;;;;;;;;4951223;28;20181;-87
2023/05/02 04:33:41;;;;;;;7.00;4.43;;;;;;;;;;4934910;28;20440;-84
2023/05/02 04:36:09;;;;;;;8.30;4.57;;;10.70;99.90;;;;;;4942359;28;20498;-87
2023/05/02 04:38:35;;;;;;;6.53;4.25;;;10.30;99.90;;;;;;4958692;28;20444;-88
2023/05/02 04:41:01;;;;;;;8.37;5.70;;;;;;;;;;4939753;28;20193;-85
2023/05/02 04:43:27;;;;;;;8.80;5.60;;;;;;;;;;4950648;28;20223;-87
2023/05/02 04:45:53;;;;;;;7.60;4.80;;;;;;;;;;4950656;28;20439;-86
2023/05/02 04:48:18;;;;;;;7.70;5.30;;;10.70;99.90;;;;;;4944373;28;20563;-86
2023/05/02 04:50:45;;;;;;;6.73;4.10;;;;;;;;;;4923253;28;20447;-83
2023/05/02 04:53:11;;;;;;;7.80;4.35;;;10.80;99.90;;;;;;4939198;28;20247;-87
2023/05/02 04:55:37;;;;;;;12.07;5.20;;;10.80;99.90;;;;;;4923418;28;20217;-87
2023/05/02 04:58:03;;;;;;;6.03;5.00;;;;;;;;;;4929214;28;20188;-84
2023/05/02 05:00:29;;;;;;;6.88;4.80;;;;;;;;;;4937070;28;20278;-86
2023/05/02 05:02:55;;;;;;;8.23;4.87;;;;;;;;;;4927614;28;21105;-86
2023/05/02 05:05:21;;;;;;;7.57;5.30;;;;;;;;;;4952277;28;20466;-85
2023/05/02 05:07:47;;;;;;;9.20;4.78;;;;;;;;;;4928466;28;20179;-86
2023/05/02 05:10:13;;;;;;;9.67;6.10;;;;;;;;;;4940093;28;20195;-88
2023/05/02 05:12:39;;;;;;;8.70;4.87;;;;;;;;;;4939879;28;20444;-84
2023/05/02 05:15:06;;;;;;;7.10;5.70;;;10.80;99.90;;;;;;4931505;28;20493;-85
2023/05/02 05:17:32;;;;;;;7.18;5.07;;;;;;;;;;4930495;28;20228;-86
2023/05/02 05:19:58;;;;;;;6.22;4.38;;;;;;;;;;4913832;28;20681;-86
2023/05/02 05:22:23;;;;;;;7.23;5.23;;;;;;;;;;4926158;28;20236;-85
2023/05/02 05:24:53;;;;;;;7.03;5.07;;;10.80;99.90;;;;;;4925060;28;20487;-83
2023/05/02 05:27:19;;;;;;;8.80;5.20;;;;;;;;;;4918702;28;20453;-85
2023/05/02 05:29:45;;;;;;;9.37;5.50;;;;;;;;;;4930242;28;20243;-86
2023/05/02 05:32:11;;;;;;;10.07;4.87;;;;;;;;;;4952444;28;20439;-88
2023/05/02 05:34:37;;;;;;;8.67;6.10;;;;;;;;;;4949593;28;21053;-84
2023/05/02 05:37:03;;;;;;;10.00;5.80;;;;;;;;;;4956085;28;20439;-81
2023/05/02 05:39:29;;;;;;;8.13;5.63;;;;;;;;;;4952580;28;20593;-86
2023/05/02 05:41:56;;;;;;;10.25;6.18;;;;;;;;;;4938478;28;20450;-85
2023/05/02 05:44:22;;;;;;;7.68;5.50;;;;;;;;;;4947164;28;20187;-84
2023/05/02 05:46:48;;;;;;;7.20;5.32;;;11.10;99.90;;;;;;4953280;28;20180;-87
2023/05/02 05:49:17;;;;;;;12.77;7.20;;;11.30;99.90;;;;;;4942560;28;20215;-83
2023/05/02 05:51:43;;;;;;;8.77;6.28;;;;;;;;;;4924913;28;20327;-83
2023/05/02 05:54:09;;;;;;;9.43;5.80;;;;;;;;;;4932632;28;20375;-81
2023/05/02 05:56:35;;;;;;;10.32;6.70;;;;;;;;;;4945888;28;20447;-86
2023/05/02 05:59:01;;;;;;;9.40;5.53;;;;;;;;;;4926613;28;20200;-82
2023/05/02 06:01:27;;;;;;;12.60;6.75;;;;;;;;;;4924529;28;20464;-87
2023/05/02 06:03:52;;;;;;;11.40;6.70;;;11.00;99.90;;;;;;4946319;28;20251;-86
2023/05/02 06:06:18;;;;;;;9.40;5.37;;;;;;;;;;4928760;28;20436;-82
2023/05/02 06:08:44;;;;;;;9.20;5.95;;;;;;;;;;4919197;28;20212;-89
2023/05/02 06:11:10;;;;;;;13.02;7.15;;;10.90;99.90;;;;;;4932865;28;20192;-84
2023/05/02 06:13:36;;;;;;;7.97;6.07;;;11.00;99.90;;;;;;4947253;28;20700;-87
2023/05/02 06:16:02;;;;;;;13.13;6.93;;;;;;;;;;4951191;28;20308;-86
2023/05/02 06:18:28;;;;;;;7.82;5.95;;;;;;;;;;4949563;28;20200;-88
2023/05/02 06:20:54;;;;;;;9.37;5.97;;;;;;;;;;4933526;28;20191;-88
2023/05/02 06:23:20;;;;;;;11.30;7.37;;;;;;;;;;4950532;28;20479;-86
2023/05/02 06:25:46;;;;;;;10.87;7.50;;;;;;;;;;4931565;28;20435;-83
2023/05/02 06:28:12;;;;;;;20.10;7.20;;;;;;;;;;4925277;28;21011;-87
2023/05/02 06:30:38;;;;;;;14.40;8.87;;;;;;;;;;4921807;28;20440;-85
2023/05/02 06:33:05;;;;;;;11.87;7.47;;;;;;;;;;4928770;28;20462;-87
2023/05/02 06:35:31;;;;;;;15.95;8.38;;;;;;;;;;4928930;28;20431;-88
2023/05/02 06:37:56;;;;;;;10.07;6.23;;;;;;;;;;4947492;28;21014;-89
2023/05/02 06:40:22;;;;;;;13.97;7.70;;;;;;;;;;4945751;28;20443;-86
2023/05/02 06:42:48;;;;;;;15.87;8.80;;;;;;;;;;4943241;28;20459;-86
2023/05/02 06:45:14;;;;;;;19.83;10.60;;;11.40;99.90;;;;;;4925764;28;20488;-85
2023/05/02 06:47:40;;;;;;;17.20;10.07;;;;;;;;;;4925569;28;20440;-83
2023/05/02 06:50:06;;;;;;;21.00;11.67;;;11.40;99.90;;;;;;4918342;28;20195;-87
2023/05/02 06:52:32;;;;;;;14.63;9.02;;;;;;;;;;4931337;28;20467;-85
2023/05/02 06:54:58;;;;;;;19.13;10.10;;;;;;;;;;4937231;28;20189;-86
2023/05/02 06:57:24;;;;;;;18.53;9.20;;;;;;;;;;4936355;28;20767;-83
2023/05/02 06:59:50;;;;;;;11.88;6.72;;;;;;;;;;4958773;28;20443;-82
2023/05/02 07:02:16;;;;;;;22.60;10.27;;;;;;;;;;4964130;28;20243;-81
2023/05/02 07:04:42;;;;;;;13.70;8.05;;;;;;;;;;4955619;28;20427;-82
2023/05/02 07:07:08;;;;;;;15.63;8.20;;;;;;;;;;4955974;28;20202;-82
2023/05/02 07:09:34;;;;;;;20.30;9.67;;;;;;;;;;4943041;28;20492;-88
2023/05/02 07:12:01;;;;;;;11.03;6.70;;;;;;;;;;4940996;28;20443;-87
2023/05/02 07:14:26;;;;;;;21.42;9.32;;;11.50;99.90;;;;;;4954601;28;20927;-86
2023/05/02 07:16:53;;;;;;;19.97;10.00;;;;;;;;;;4952843;28;20191;-83
2023/05/02 07:19:19;;;;;;;21.48;10.68;;;;;;;;;;4948017;28;20829;-84
2023/05/02 07:21:45;;;;;;;15.67;8.20;;;;;;;;;;4950619;28;20232;-83
2023/05/02 07:24:11;;;;;;;23.03;11.20;;;;;;;;;;4946025;28;20432;-90
2023/05/02 07:26:37;;;;;;;18.40;9.07;;;;;;;;;;4945543;28;20455;-87
2023/05/02 07:29:05;;;;;;;20.60;11.10;;;;;;;;;;4955120;28;20472;-87
2023/05/02 07:31:31;;;;;;;17.73;9.18;;;;;;;;;;4952791;28;21316;-87
2023/05/02 07:33:57;;;;;;;15.60;9.23;;;;;;;;;;4933755;28;20216;-85
2023/05/02 07:36:23;;;;;;;19.67;10.40;;;;;;;;;;4937519;28;20487;-89
2023/05/02 07:38:49;;;;;;;20.63;11.93;;;;;;;;;;4930501;28;20526;-87
2023/05/02 07:41:15;;;;;;;18.93;10.23;;;;;;;;;;4924896;28;20482;-84
2023/05/02 07:43:42;;;;;;;16.77;11.67;;;14.10;99.90;;;;;;4936865;28;20451;-85
2023/05/02 07:46:08;;;;;;;19.17;11.48;;;;;;;;;;4938517;28;20490;-84
2023/05/02 07:48:34;;;;;;;27.70;10.23;;;;;;;;;;4916277;28;20435;-89
2023/05/02 07:51:07;;;;;;;22.90;11.33;;;13.80;99.90;;;;;;4944801;28;20444;-89
2023/05/02 07:53:33;;;;;;;23.10;12.27;;;;;;;;;;4925688;28;20439;-87
2023/05/02 07:55:59;;;;;;;24.03;12.33;;;;;;;;;;4920654;28;20199;-87
2023/05/02 07:58:25;;;;;;;23.57;12.50;;;;;;;;;;4921614;28;20542;-85
2023/05/02 08:00:51;;;;;;;25.90;11.93;;;;;;;;;;4925381;28;20610;-86
2023/05/02 08:03:17;;;;;;;20.70;11.50;;;;;;;;;;4949667;28;20466;-86
2023/05/02 08:05:43;;;;;;;23.53;13.97;;;;;;;;;;4931690;28;20546;-86
2023/05/02 08:08:09;;;;;;;18.20;10.37;;;;;;;;;;4936413;28;22762;-83
2023/05/02 08:10:35;;;;;;;20.63;12.87;;;;;;;;;;4943274;28;20452;-84
2023/05/02 08:13:01;;;;;;;21.43;10.63;;;;;;;;;;4944960;28;20479;-88
2023/05/02 08:15:27;;;;;;;18.30;10.80;;;;;;;;;;4925938;28;20483;-90
2023/05/02 08:17:53;;;;;;;20.90;10.97;;;;;;;;;;4942587;28;20443;-88
2023/05/02 08:20:19;;;;;;;16.17;9.73;;;;;;;;;;4932901;28;20535;-83
2023/05/02 08:22:45;;;;;;;20.97;11.70;;;;;;;;;;4952220;28;21089;-88
2023/05/02 08:25:11;;;;;;;20.70;10.10;;;;;;;;;;4931476;28;20431;-90
2023/05/02 08:27:49;;;;;;;21.70;11.40;;;14.40;99.90;;;;;;4938003;28;20431;-85
2023/05/02 08:30:15;;;;;;;19.93;10.13;;;;;;;;;;4972475;28;20483;-82
2023/05/02 08:32:41;;;;;;;24.13;12.50;;;;;;;;;;4942455;28;20468;-84
2023/05/02 08:35:07;;;;;;;21.40;12.27;;;;;;;;;;4943452;28;20431;-87
2023/05/02 08:37:33;;;;;;;21.70;12.93;;;;;;;;;;4949744;28;20435;-87
2023/05/02 08:40:00;;;;;;;25.87;13.57;;;;;;;;;;4946120;28;20438;-86
2023/05/02 08:42:26;;;;;;;22.77;11.37;;;;;;;;;;4931862;28;20463;-87
2023/05/02 08:44:52;;;;;;;19.60;11.30;;;;;;;;;;4945351;28;20502;-83
2023/05/02 08:47:18;;;;;;;19.27;12.03;;;;;;;;;;4926774;28;20448;-86
2023/05/02 08:49:45;;;;;;;22.30;12.27;;;19.30;99.90;;;;;;4927580;28;20929;-87
2023/05/02 08:52:12;;;;;;;21.47;12.70;;;20.50;99.90;;;;;;4923601;28;20496;-86
2023/05/02 08:54:38;;;;;;;20.13;12.30;;;;;;;;;;4932601;28;20486;-89
2023/05/02 08:57:04;;;;;;;20.33;11.50;;;19.40;99.90;;;;;;4927610;28;20519;-88
2023/05/02 08:59:30;;;;;;;17.60;12.43;;;;;;;;;;4953474;28;20526;-85
2023/05/02 09:02:16;;;;;;;23.73;12.30;;;21.60;99.90;;;;;;4954763;28;20478;-87
2023/05/02 09:04:43;;;;;;;19.53;12.03;;;;;;;;;;4941285;28;20451;-88
2023/05/02 09:07:09;;;;;;;18.17;11.70;;;;;;;;;;4946074;28;20475;-87
2023/05/02 09:09:36;;;;;;;18.70;11.33;;;;;;;;;;4948680;28;20482;-86
2023/05/02 09:12:02;;;;;;;20.10;12.83;;;;;;;;;;4934697;28;20465;-89
2023/05/02 09:14:28;;;;;;;19.57;12.43;;;;;;;;;;4932992;28;20929;-89
2023/05/02 09:16:59;;;;;;;18.80;11.53;;;23.40;99.50;;;;;;4948769;28;20436;-86
2023/05/02 09:19:25;;;;;;;21.13;14.57;;;;;;;;;;4934703;28;20448;-86
2023/05/02 09:21:57;;;;;;;20.63;13.37;;;24.70;97.50;;;;;;4937958;28;20460;-83
2023/05/02 09:24:24;;;;;;;24.30;14.10;;;24.60;98.10;;;;;;4923310;28;20992;-84
2023/05/02 09:26:58;;;;;;;20.27;12.93;;;24.30;96.10;;;;;;4930918;28;20449;-85
2023/05/02 09:29:26;;;;;;;17.17;11.67;;;24.30;96.40;;;;;;4931637;28;21015;-86
2023/05/02 09:31:52;;;;;;;19.73;11.27;;;;;;;;;;4931962;28;20500;-86
2023/05/02 09:34:18;;;;;;;20.73;13.63;;;;;;;;;;4948600;28;20827;-82
2023/05/02 09:36:46;;;;;;;22.83;12.70;;;23.60;96.00;;;;;;4955571;28;20983;-86
2023/05/02 09:39:12;;;;;;;18.90;13.00;;;;;;;;;;4927931;28;20448;-83
2023/05/02 09:41:42;;;;;;;17.83;13.40;;;22.20;96.20;;;;;;4934753;28;20772;-82
2023/05/02 09:44:11;;;;;;;23.27;13.90;;;20.70;98.40;;;;;;4928472;28;20495;-84
2023/05/02 09:46:40;;;;;;;23.93;14.13;;;19.80;99.90;;;;;;4945329;28;20444;-84
2023/05/02 09:49:09;;;;;;;22.80;14.17;;;;;;;;;;4937926;28;20478;-89
2023/05/02 09:51:35;;;;;;;22.07;12.03;;;;;;;;;;4957910;28;20539;-86
2023/05/02 09:54:02;;;;;;;25.00;14.93;;;18.00;99.90;;;;;;4955824;28;20447;-84
2023/05/02 09:56:28;;;;;;;25.80;14.77;;;;;;;;;;4939391;28;20420;-83
2023/05/02 09:59:14;;;;;;;21.30;14.00;;;18.00;99.90;;;;;;4961359;28;20471;-82
2023/05/02 10:01:41;;;;;;;28.77;13.53;;;;;;;;;;4959526;28;20463;-88
2023/05/02 10:04:15;;;;;;;28.97;14.40;;;16.10;99.90;;;;;;4945948;28;20438;-88
2023/05/02 10:06:41;;;;;;;26.80;14.13;;;;;;;;;;4958453;28;20436;-88
2023/05/02 10:09:09;;;;;;;20.80;12.10;;;15.80;99.90;;;;;;4926301;28;20514;-85
2023/05/02 10:11:39;;;;;;;23.77;12.10;;;15.90;99.90;;;;;;4949175;28;20466;-85
2023/05/02 10:14:08;;;;;;;22.33;12.37;;;16.20;99.90;;;;;;4934284;28;20523;-84
2023/05/02 10:16:37;;;;;;;26.97;14.57;;;16.50;99.90;;;;;;4937143;28;20451;-84
2023/05/02 10:19:07;;;;;;;29.93;13.50;;;17.40;99.90;;;;;;4951905;28;20443;-82
2023/05/02 10:21:34;;;;;;;28.17;14.13;;;;;;;;;;4954366;28;20464;-86
2023/05/02 10:24:02;;;;;;;32.30;13.93;;;17.90;99.90;;;;;;4939762;28;20495;-85
2023/05/02 10:26:28;;;;;;;27.07;14.57;;;;;;;;;;4953526;28;20424;-84
2023/05/02 10:28:55;;;;;;;21.83;11.50;;;18.90;99.90;;;;;;4950429;28;20576;-80
2023/05/02 10:31:22;;;;;;;29.10;14.10;;;19.10;99.90;;;;;;4935807;28;21063;-85
2023/05/02 10:33:51;;;;;;;27.93;14.37;;;19.30;99.90;;;;;;4951000;28;20435;-85
2023/05/02 10:36:22;;;;;;;24.87;12.77;;;19.10;99.90;;;;;;4953284;28;20454;-84
2023/05/02 10:38:49;;;;;;;20.23;11.63;;;19.30;99.90;;;;;;4955700;28;20475;-83
2023/05/02 10:41:19;;;;;;;26.03;14.80;;;19.10;99.90;;;;;;4918204;28;20495;-82
2023/05/02 10:43:47;;;;;;;22.67;12.57;;;18.80;99.90;;;;;;4936831;28;21323;-83
2023/05/02 10:46:36;;;;;;;22.50;12.67;;;18.90;99.90;;;;;;4940662;28;20451;-86
2023/05/02 10:49:03;;;;;;;24.23;13.80;;;19.20;99.90;;;;;;4941465;28;20480;-87
2023/05/02 10:51:33;;;;;;;23.97;13.40;;;19.00;99.90;;;;;;4955128;28;20460;-84
2023/05/02 10:54:16;;;;;;;22.53;14.80;;;18.10;99.90;;;;;;4948730;28;20448;-83
2023/05/02 10:57:15;;;;;;;17.40;10.70;;;17.20;99.90;;;;;;4939732;28;20963;-80
2023/05/02 10:59:41;;;;;;;22.63;11.93;;;16.40;99.90;;;;;;4924647;28;20447;-86
2023/05/02 11:02:22;;;;;;;23.67;13.10;;;17.70;99.90;;;;;;4936704;28;20565;-85
2023/05/02 11:05:02;;;;;;;23.80;12.83;;;18.30;99.90;;;;;;4941294;28;20475;-86
2023/05/02 11:07:36;;;;;;;25.47;14.20;;;15.90;99.90;;;;;;4932584;28;20434;-87
2023/05/02 11:10:16;;;;;;;22.93;11.90;;;16.50;99.90;;;;;;4932718;28;20467;-87
2023/05/02 11:12:50;;;;;;;23.13;11.30;;;16.50;99.90;;;;;;4952511;28;20994;-83
2023/05/02 11:15:28;;;;;;;26.80;11.50;;;17.10;99.90;;;;;;4959818;28;20964;-84
2023/05/02 11:18:07;;;;;;;15.80;9.43;;;17.10;99.90;;;;;;4938591;28;20510;-85
2023/05/02 11:20:45;;;;;;;23.57;11.27;;;17.50;99.90;;;;;;4932868;28;20443;-87
2023/05/02 11:23:24;;;;;;;22.70;11.87;;;17.50;99.90;;;;;;4955248;28;20447;-88
2023/05/02 11:25:52;;;;;;;17.20;9.87;;;18.00;99.90;;;;;;4960990;28;20509;-82
2023/05/02 11:28:37;;;;;;;24.37;11.63;;;17.80;99.90;;;;;;4955407;28;20555;-82
2023/05/02 11:31:04;;;;;;;20.80;11.50;;;17.80;99.90;;;;;;4950939;28;20443;-86
2023/05/02 11:33:30;;;;;;;19.50;10.63;;;;;;;;;;4937501;28;20495;-81
2023/05/02 11:35:57;;;;;;;18.90;11.07;;;;;;;;;;4951222;28;20440;-87
2023/05/02 11:38:23;;;;;;;20.10;10.87;;;;;;;;;;4926257;28;21483;-85
2023/05/02 11:40:51;;;;;;;19.90;11.20;;;18.40;99.90;;;;;;4937712;28;20443;-86
2023/05/02 11:43:18;;;;;;;22.13;10.93;;;18.20;99.90;;;;;;4936268;28;20478;-83
2023/05/02 11:45:45;;;;;;;18.17;10.40;;;;;;;;;;4938960;28;20443;-85
2023/05/02 11:48:12;;;;;;;11.83;7.77;;;17.50;99.90;;;;;;4945130;28;20541;-81
2023/05/02 11:50:44;;;;;;;18.80;9.37;;;17.70;99.90;;;;;;4931868;28;20447;-89
2023/05/02 11:53:12;;;;;;;17.27;9.77;;;17.70;99.90;;;;;;4932506;28;20486;-87
2023/05/02 11:55:46;;;;;;;13.60;9.57;;;17.00;99.90;;;;;;4932202;28;20789;-86
2023/05/02 11:58:14;;;;;;;13.43;8.33;;;17.40;99.90;;;;;;4932121;28;20431;-88
2023/05/02 12:00:40;;;;;;;14.67;9.80;;;;;;;;;;4928212;28;21530;-83
2023/05/02 12:03:06;;;;;;;14.80;7.90;;;;;;;;;;4928697;28;20488;-85
2023/05/02 12:05:32;;;;;;;15.47;8.27;;;;;;;;;;4934996;28;20488;-86
2023/05/02 12:08:00;;;;;;;18.67;9.10;;;;;;;;;;4956230;28;20526;-88
2023/05/02 12:10:36;;;;;;;15.50;9.30;;;17.40;99.90;;;;;;4945990;28;20471;-86
2023/05/02 12:13:05;;;;;;;13.23;7.70;;;17.40;99.90;;;;;;4919174;28;20459;-83
2023/05/02 12:15:33;;;;;;;13.33;8.50;;;;;;;;;;4930067;29;20467;-86
2023/05/02 12:18:00;;;;;;;10.67;7.40;;;17.70;99.90;;;;;;4932242;28;20494;-85
2023/05/02 12:20:26;;;;;;;11.30;7.40;;;;;;;;;;4925816;28;20446;-82
2023/05/02 12:22:52;;;;;;;13.03;7.80;;;;;;;;;;4940283;28;20443;-87
2023/05/02 12:25:18;;;;;;;11.47;6.60;;;;;;;;;;4943324;28;20526;-84
2023/05/02 12:28:01;;;;;;;8.30;5.30;;;18.10;99.90;;;;;;4932428;28;20892;-87
2023/05/02 12:30:28;;;;;;;8.23;4.90;;;;;;;;;;4929488;28;21530;-82
2023/05/02 12:32:58;;;;;;;10.23;6.23;;;17.90;99.90;;;;;;4925484;28;20448;-90
2023/05/02 12:35:24;;;;;;;10.03;5.97;;;;;;;;;;4923097;29;21352;-88
2023/05/02 12:37:52;;;;;;;11.83;6.80;;;17.80;99.90;;;;;;4927316;28;20431;-84
2023/05/02 12:40:17;;;;;;;13.10;7.70;;;;;;;;;;4929245;28;20542;-82
2023/05/02 12:43:03;;;;;;;13.50;7.70;;;18.00;99.90;;;;;;4951384;28;20472;-85
2023/05/02 12:45:33;;;;;;;12.60;6.70;;;17.80;99.90;;;;;;4927918;28;20816;-86
2023/05/02 12:48:00;;;;;;;11.80;6.60;;;17.80;99.90;;;;;;4951242;28;20440;-83
2023/05/02 12:50:37;;;;;;;14.73;7.57;;;17.90;99.90;;;;;;4939271;28;20475;-85
2023/05/02 12:53:03;;;;;;;14.97;8.03;;;;;;;;;;4931357;28;20468;-86
2023/05/02 12:55:31;;;;;;;13.40;7.33;;;;;;;;;;4947066;28;20444;-87
2023/05/02 12:58:05;;;;;;;12.60;6.40;;;18.50;99.90;;;;;;4957303;28;20454;-84
2023/05/02 13:00:32;;;;;;;8.27;5.63;;;18.40;99.90;;;;;;4943059;28;20451;-83
2023/05/02 13:02:58;;;;;;;13.60;6.03;;;;;;;;;;4949098;28;20522;-84
2023/05/02 13:05:25;;;;;;;11.50;5.50;;;;;;;;;;4947873;28;20471;-83
2023/05/02 13:07:51;;;;;;;11.00;6.43;;;;;;;;;;4942009;28;20468;-87
2023/05/02 13:10:17;;;;;;;12.20;6.53;;;;;;;;;;4945296;28;20452;-85
2023/05/02 13:12:46;;;;;;;7.50;5.17;;;18.40;99.90;;;;;;4941426;28;20506;-83
2023/05/02 13:15:13;;;;;;;12.60;7.13;;;;;;;;;;4945622;28;20431;-87
2023/05/02 13:17:39;;;;;;;13.97;7.23;;;;;;;;;;4930027;28;20439;-83
2023/05/02 13:20:05;;;;;;;11.10;6.03;;;;;;;;;;4926507;28;20443;-86
2023/05/02 13:22:32;;;;;;;17.60;7.37;;;;;;;;;;4939474;28;20471;-87
2023/05/02 13:24:58;;;;;;;11.17;7.07;;;;;;;;;;4925229;28;21501;-86
2023/05/02 13:27:24;;;;;;;11.43;6.80;;;19.10;99.90;;;;;;4943062;28;20795;-83
2023/05/02 13:29:50;;;;;;;15.10;7.40;;;;;;;;;;4944846;28;20460;-88
2023/05/02 13:32:16;;;;;;;11.40;6.43;;;;;;;;;;4918345;28;20773;-83
2023/05/02 13:34:42;;;;;;;10.10;4.93;;;;;;;;;;4933183;28;20734;-85
2023/05/02 13:37:08;;;;;;;8.83;4.83;;;;;;;;;;4949353;28;20433;-86
2023/05/02 13:39:34;;;;;;;10.83;5.17;;;;;;;;;;4951284;28;21058;-87
2023/05/02 13:42:02;;;;;;;12.07;6.53;;;;;;;;;;4947229;28;20490;-85
2023/05/02 13:44:28;;;;;;;9.93;5.63;;;;;;;;;;4944724;28;20432;-88
2023/05/02 13:46:54;;;;;;;11.80;6.60;;;;;;;;;;4928504;28;20536;-85
2023/05/02 13:49:20;;;;;;;10.93;5.67;;;;;;;;;;4948193;28;20583;-87